createdAt,value
2019-06-10T08:07:05.101Z,4.23
2019-06-10T08:09:49.850Z,5.73
2019-06-10T08:12:32.768Z,4.53
2019-06-10T08:15:16.589Z,4.33
2019-06-10T08:17:59.499Z,7.17
2019-06-10T08:20:48.689Z,10.93
2019-06-10T08:23:32.871Z,4.93
2019-06-10T08:26:15.736Z,5.93
2019-06-10T08:28:58.716Z,6.17
2019-06-10T08:31:44.486Z,6.60
2019-06-10T08:34:25.941Z,8.27
2019-06-10T08:37:09.276Z,5.93
2019-06-10T08:39:53.007Z,6.97
2019-06-10T08:42:37.075Z,4.73
2019-06-10T08:45:22.628Z,9.80
2019-06-10T08:48:05.021Z,3.90
2019-06-10T08:50:49.886Z,11.87
2019-06-10T08:53:33.005Z,7.17
2019-06-10T08:56:16.289Z,3.50
2019-06-10T08:58:59.178Z,4.87
2019-06-10T09:01:46.835Z,3.87
2019-06-10T09:04:29.370Z,4.70
2019-06-10T09:07:12.584Z,4.17
2019-06-10T09:09:56.452Z,7.17
2019-06-10T09:12:41.737Z,3.70
2019-06-10T09:15:24.688Z,5.07
2019-06-10T09:18:07.908Z,5.37
2019-06-10T09:20:55.282Z,3.10
2019-06-10T09:23:34.738Z,2.90
2019-06-10T09:26:17.344Z,4.67
2019-06-10T09:29:02.728Z,3.87
2019-06-10T09:31:46.774Z,2.80
2019-06-10T09:34:29.145Z,5.13
2019-06-10T09:37:12.838Z,7.50
2019-06-10T09:39:59.399Z,8.83
2019-06-10T09:42:45.566Z,4.47
2019-06-10T09:45:26.097Z,10.53
2019-06-10T09:48:08.655Z,3.87
2019-06-10T09:50:57.926Z,5.80
2019-06-10T09:53:42.741Z,3.73
2019-06-10T09:56:22.865Z,6.43
2019-06-10T09:59:05.373Z,2.90
2019-06-10T10:01:50.980Z,11.60
2019-06-10T10:04:32.854Z,4.07
2019-06-10T10:07:17.584Z,3.50
2019-06-10T10:10:04.179Z,4.70
2019-06-10T10:12:47.552Z,6.43
2019-06-10T10:15:33.824Z,4.60
2019-06-10T10:18:16.470Z,7.20
2019-06-10T10:21:00.423Z,7.40
2019-06-10T10:23:58.321Z,7.10
2019-06-10T10:26:28.071Z,7.87
2019-06-10T10:29:13.012Z,17.60
2019-06-10T10:31:55.914Z,6.90
2019-06-10T10:34:38.777Z,10.53
2019-06-10T10:37:22.899Z,13.00
2019-06-10T10:40:06.264Z,4.40
2019-06-10T10:42:56.733Z,4.87
2019-06-10T10:45:33.864Z,6.13
2019-06-10T10:48:16.743Z,3.23
2019-06-10T10:50:59.858Z,7.50
2019-06-10T10:53:46.831Z,3.83
2019-06-10T10:56:26.902Z,3.57
2019-06-10T10:59:12.634Z,7.03
2019-06-10T11:01:55.202Z,7.63
2019-06-10T11:04:38.426Z,10.53
2019-06-10T11:07:22.348Z,8.50
2019-06-10T11:10:08.066Z,9.70
2019-06-10T11:12:53.721Z,10.47
2019-06-10T11:15:35.489Z,14.40
2019-06-10T11:18:18.810Z,11.73
2019-06-10T11:21:04.670Z,11.13
2019-06-10T11:23:46.232Z,19.07
2019-06-10T11:26:28.969Z,35.67
2019-06-10T11:29:11.829Z,17.30
2019-06-10T11:31:56.678Z,17.70
2019-06-10T11:34:39.542Z,13.43
2019-06-10T11:37:23.087Z,26.33
2019-06-10T11:40:06.188Z,26.07
2019-06-10T11:42:50.499Z,54.30
2019-06-10T11:45:34.246Z,60.43
2019-06-10T11:48:17.000Z,31.77
2019-06-10T11:51:04.099Z,49.07
2019-06-10T11:53:45.377Z,50.07
2019-06-10T11:56:28.257Z,44.97
2019-06-10T11:59:13.441Z,58.13
2019-06-10T12:01:59.249Z,63.77
2019-06-10T12:04:40.369Z,62.23
2019-06-10T12:07:23.262Z,62.80
2019-06-10T12:10:06.912Z,75.90
2019-06-10T12:12:53.466Z,51.07
2019-06-10T12:16:12.647Z,44.37
2019-06-10T12:18:18.987Z,32.93
2019-06-10T12:21:03.862Z,33.77
2019-06-10T12:23:47.431Z,23.60
2019-06-10T12:26:30.316Z,24.60
2019-06-10T12:29:13.700Z,24.47
2019-06-10T12:32:01.217Z,27.80
2019-06-10T12:34:41.126Z,31.33
2019-06-10T12:37:24.011Z,28.63
2019-06-10T12:40:07.193Z,23.73
2019-06-10T12:42:52.483Z,24.10
2019-06-10T12:45:34.986Z,34.87
2019-06-10T12:48:17.668Z,19.73
2019-06-10T12:51:05.748Z,20.90
2019-06-10T12:53:46.941Z,19.07
2019-06-10T12:56:32.628Z,27.57
2019-06-10T12:59:14.624Z,10.67
2019-06-10T13:02:01.721Z,11.77
2019-06-10T13:04:43.921Z,22.77
2019-06-10T13:07:27.863Z,16.33
2019-06-10T13:10:12.215Z,19.77
2019-06-10T13:12:55.880Z,14.50
2019-06-10T13:15:38.599Z,18.33
2019-06-10T13:18:23.820Z,18.30
2019-06-10T13:21:11.712Z,15.77
2019-06-10T13:23:50.608Z,16.10
2019-06-10T13:26:36.060Z,17.13
2019-06-10T13:29:17.935Z,16.63
2019-06-10T13:32:02.927Z,30.63
2019-06-10T13:34:47.316Z,11.90
2019-06-10T13:37:32.094Z,18.07
2019-06-10T13:40:14.662Z,15.33
2019-06-10T13:42:57.699Z,23.50
2019-06-10T13:45:43.014Z,13.60
2019-06-10T13:48:26.090Z,11.50
2019-06-10T13:51:12.307Z,12.83
2019-06-10T13:53:53.777Z,7.70
2019-06-10T13:56:46.578Z,7.10
2019-06-10T13:59:23.094Z,5.23
2019-06-10T14:02:08.559Z,4.73
2019-06-10T14:04:50.192Z,2.87
2019-06-10T14:07:32.969Z,3.97
2019-06-10T14:10:18.122Z,4.97
2019-06-10T14:13:01.443Z,6.00
2019-06-10T14:15:44.623Z,9.97
2019-06-10T14:18:28.741Z,5.87
2019-06-10T14:21:17.888Z,4.07
2019-06-10T14:23:56.401Z,4.83
2019-06-10T14:26:44.685Z,7.77
2019-06-10T14:29:24.532Z,2.50
2019-06-10T14:32:07.435Z,2.53
2019-06-10T14:34:52.516Z,5.20
2019-06-10T14:37:39.188Z,4.53
2019-06-10T14:40:20.928Z,8.43
2019-06-10T14:43:04.153Z,5.10
2019-06-10T14:45:47.287Z,3.30
2019-06-10T14:48:33.374Z,4.40
2019-06-10T14:51:16.656Z,3.17
2019-06-10T14:53:59.291Z,5.53
2019-06-10T14:56:53.491Z,5.10
2019-06-10T14:59:27.430Z,24.03
2019-06-10T15:02:12.510Z,7.13
2019-06-10T15:04:54.502Z,2.08
2019-06-10T15:07:38.020Z,8.90
2019-06-10T15:10:23.375Z,6.10
2019-06-10T15:13:06.159Z,8.70
2019-06-10T15:15:49.162Z,5.45
2019-06-10T15:18:33.012Z,7.22
2019-06-10T15:21:15.754Z,7.17
2019-06-10T15:23:59.097Z,10.30
2019-06-10T15:26:42.185Z,6.12
2019-06-10T15:29:26.301Z,7.65
2019-06-10T15:32:18.563Z,5.05
2019-06-10T15:34:54.069Z,5.58
2019-06-10T15:37:36.798Z,6.35
2019-06-10T15:40:20.213Z,6.25
2019-06-10T15:43:06.259Z,7.05
2019-06-10T15:45:48.407Z,10.25
2019-06-10T15:48:31.007Z,4.97
2019-06-10T15:51:17.483Z,8.65
2019-06-10T15:53:58.558Z,9.73
2019-06-10T15:56:50.011Z,6.10
2019-06-10T15:59:26.777Z,6.25
2019-06-10T16:02:09.898Z,2.27
2019-06-10T16:04:53.434Z,10.15
2019-06-10T16:07:36.447Z,7.47
2019-06-10T16:10:23.324Z,8.90
2019-06-10T16:13:04.404Z,10.75
2019-06-10T16:15:47.154Z,7.70
2019-06-10T16:18:32.932Z,4.75
2019-06-10T16:21:16.863Z,3.90
2019-06-10T16:23:59.604Z,8.63
2019-06-10T16:26:42.478Z,6.62
2019-06-10T16:29:26.970Z,4.83
2019-06-10T16:32:09.440Z,7.70
2019-06-10T16:34:53.001Z,6.47
2019-06-10T16:37:35.943Z,6.22
2019-06-10T16:40:19.587Z,5.53
2019-06-10T16:43:02.387Z,6.08
2019-06-10T16:45:45.225Z,7.40
2019-06-10T16:48:27.985Z,4.75
2019-06-10T16:51:13.329Z,6.62
2019-06-10T16:53:57.156Z,6.92
2019-06-10T16:56:43.308Z,3.25
2019-06-10T16:59:25.871Z,6.78
2019-06-10T17:02:12.651Z,5.62
2019-06-10T17:04:54.231Z,7.17
2019-06-10T17:07:37.752Z,12.40
2019-06-10T17:10:23.643Z,16.17
2019-06-10T17:13:09.097Z,10.38
2019-06-10T17:15:53.686Z,19.62
2019-06-10T17:18:36.030Z,10.20
2019-06-10T17:21:19.383Z,7.85
2019-06-10T17:24:03.546Z,10.00
2019-06-10T17:26:47.371Z,3.95
2019-06-10T17:29:30.599Z,23.40
2019-06-10T17:32:13.566Z,1.75
2019-06-10T17:34:56.464Z,7.05
2019-06-10T17:37:39.703Z,7.42
2019-06-10T17:40:24.926Z,10.58
2019-06-10T17:43:07.994Z,9.65
2019-06-10T17:45:52.802Z,4.22
2019-06-10T17:48:36.820Z,6.90
2019-06-10T17:51:22.340Z,12.20
2019-06-10T17:54:04.205Z,4.92
2019-06-10T17:56:47.227Z,7.53
2019-06-10T17:59:31.417Z,6.67
2019-06-10T18:02:14.420Z,15.28
2019-06-10T18:04:57.013Z,9.70
2019-06-10T18:07:39.917Z,10.28
2019-06-10T18:10:23.996Z,7.30
2019-06-10T18:13:15.759Z,13.85
2019-06-10T18:15:53.408Z,6.65
2019-06-10T18:18:37.413Z,6.05
2019-06-10T18:21:22.386Z,11.30
2019-06-10T18:24:08.280Z,3.22
2019-06-10T18:26:49.800Z,6.12
2019-06-10T18:29:35.292Z,5.78
2019-06-10T18:32:17.329Z,5.70
2019-06-10T18:35:02.939Z,3.65
2019-06-10T18:37:46.632Z,7.17
2019-06-10T18:40:31.513Z,5.78
2019-06-10T18:43:17.556Z,2.08
2019-06-10T18:45:59.378Z,3.35
2019-06-10T18:48:43.092Z,4.53
2019-06-10T18:51:27.178Z,6.37
2019-06-10T18:54:09.930Z,7.62
2019-06-10T18:56:53.620Z,3.42
2019-06-10T18:59:36.681Z,4.40
2019-06-10T19:02:22.684Z,9.18
2019-06-10T19:05:05.191Z,7.83
2019-06-10T19:07:48.237Z,6.10
2019-06-10T19:10:31.721Z,6.50
2019-06-10T19:13:16.132Z,5.72
2019-06-10T19:15:58.914Z,7.47
2019-06-10T19:18:43.519Z,6.75
2019-06-10T19:21:26.289Z,5.03
2019-06-10T19:24:09.277Z,6.15
2019-06-10T19:26:52.737Z,7.60
2019-06-10T19:29:42.942Z,8.80
2019-06-10T19:32:20.335Z,6.15
2019-06-10T19:35:07.002Z,8.73
2019-06-10T19:37:48.448Z,4.72
2019-06-10T19:40:32.539Z,3.60
2019-06-10T19:43:16.080Z,2.87
2019-06-10T19:46:02.948Z,5.47
2019-06-10T19:48:56.707Z,7.20
2019-06-10T19:51:29.585Z,5.33
2019-06-10T19:54:13.007Z,8.73
2019-06-10T19:56:56.204Z,6.17
2019-06-10T20:00:02.720Z,6.70
2019-06-10T20:02:24.222Z,12.28
2019-06-10T20:05:07.659Z,6.70
